Aviation Digital Data Service (ADDS)

Output produced by METARs form (1006 UTC 23 October 2014)
found at http://aviationweather.gov/adds/metars/
 
KGFL 230523Z 2306/2406 01012G20KT P6SM VCSH OVC030 
     FM230800 01012G20KT 6SM -RA BR OVC025 
     TEMPO 2308/2310 4SM -RA BR OVC015 
     FM231000 36012G18KT 4SM -RA BR SCT008 OVC015 
     TEMPO 2310/2314 2SM RA BR OVC008 
     FM231600 36010G15KT 3SM -RA BR OVC015